sensor_id;sensor_type;location;lat;lon;timestamp;pressure;altitude;pressure_sealevel;temperature
43802;BMP280;29429;51.074;13.764;2023-08-06T00:02:26;99206.34;;;17.87
43802;BMP280;29429;51.074;13.764;2023-08-06T00:04:53;99198.81;;;17.89
43802;BMP280;29429;51.074;13.764;2023-08-06T00:07:20;99186.38;;;17.88
43802;BMP280;29429;51.074;13.764;2023-08-06T00:09:47;99184.75;;;17.82
43802;BMP280;29429;51.074;13.764;2023-08-06T00:12:14;99172.34;;;17.81
43802;BMP280;29429;51.074;13.764;2023-08-06T00:14:41;99172.34;;;17.81
43802;BMP280;29429;51.074;13.764;2023-08-06T00:17:09;99168.00;;;17.80
43802;BMP280;29429;51.074;13.764;2023-08-06T00:19:37;99166.66;;;17.78
43802;BMP280;29429;51.074;13.764;2023-08-06T00:22:04;99165.06;;;17.82
43802;BMP280;29429;51.074;13.764;2023-08-06T00:24:32;99154.00;;;17.78
43802;BMP280;29429;51.074;13.764;2023-08-06T00:26:59;99157.75;;;17.82
43802;BMP280;29429;51.074;13.764;2023-08-06T00:29:26;99162.09;;;17.78
43802;BMP280;29429;51.074;13.764;2023-08-06T00:31:53;99168.00;;;17.80
43802;BMP280;29429;51.074;13.764;2023-08-06T00:34:21;99165.03;;;17.77
43802;BMP280;29429;51.074;13.764;2023-08-06T00:36:48;99156.16;;;17.76
43802;BMP280;29429;51.074;13.764;2023-08-06T00:39:15;99168.56;;;17.82
43802;BMP280;29429;51.074;13.764;2023-08-06T00:41:43;99158.84;;;17.81
43802;BMP280;29429;51.074;13.764;2023-08-06T00:44:11;99162.63;;;17.80
43802;BMP280;29429;51.074;13.764;2023-08-06T00:46:39;99159.09;;;17.80
43802;BMP280;29429;51.074;13.764;2023-08-06T00:49:10;99149.41;;;17.79
43802;BMP280;29429;51.074;13.764;2023-08-06T00:51:37;99154.81;;;17.79
43802;BMP280;29429;51.074;13.764;2023-08-06T00:54:05;99144.25;;;17.77
43802;BMP280;29429;51.074;13.764;2023-08-06T00:56:35;99142.09;;;17.69
43802;BMP280;29429;51.074;13.764;2023-08-06T00:59:05;99133.19;;;17.69
43802;BMP280;29429;51.074;13.764;2023-08-06T01:01:33;99132.41;;;17.73
43802;BMP280;29429;51.074;13.764;2023-08-06T01:04:01;99136.16;;;17.67
43802;BMP280;29429;51.074;13.764;2023-08-06T01:09:45;99129.69;;;17.68
43802;BMP280;29429;51.074;13.764;2023-08-06T01:12:45;99116.72;;;17.65
43802;BMP280;29429;51.074;13.764;2023-08-06T01:15:29;99117.81;;;17.64
43802;BMP280;29429;51.074;13.764;2023-08-06T01:17:58;99118.91;;;17.63
43802;BMP280;29429;51.074;13.764;2023-08-06T01:20:30;99118.06;;;17.62
43802;BMP280;29429;51.074;13.764;2023-08-06T01:22:57;99103.25;;;17.60
43802;BMP280;29429;51.074;13.764;2023-08-06T01:25:35;99106.75;;;17.66
43802;BMP280;29429;51.074;13.764;2023-08-06T01:28:23;99103.78;;;17.67
43802;BMP280;29429;51.074;13.764;2023-08-06T01:30:58;99097.31;;;17.68
43802;BMP280;29429;51.074;13.764;2023-08-06T01:33:30;99084.09;;;17.67
43802;BMP280;29429;51.074;13.764;2023-08-06T01:36:01;99090.03;;;17.69
43802;BMP280;29429;51.074;13.764;2023-08-06T01:38:31;99081.69;;;17.65
43802;BMP280;29429;51.074;13.764;2023-08-06T01:40:58;99084.38;;;17.65
43802;BMP280;29429;51.074;13.764;2023-08-06T01:43:25;99087.31;;;17.63
43802;BMP280;29429;51.074;13.764;2023-08-06T01:45:52;99083.25;;;17.61
43802;BMP280;29429;51.074;13.764;2023-08-06T01:48:19;99083.84;;;17.63
43802;BMP280;29429;51.074;13.764;2023-08-06T01:50:46;99082.75;;;17.64
43802;BMP280;29429;51.074;13.764;2023-08-06T01:53:13;99082.22;;;17.67
43802;BMP280;29429;51.074;13.764;2023-08-06T01:55:40;99079.50;;;17.67
43802;BMP280;29429;51.074;13.764;2023-08-06T01:58:07;99080.56;;;17.66
43802;BMP280;29429;51.074;13.764;2023-08-06T02:00:34;99083.56;;;17.70
43802;BMP280;29429;51.074;13.764;2023-08-06T02:03:01;99077.34;;;17.69
43802;BMP280;29429;51.074;13.764;2023-08-06T02:05:28;99081.41;;;17.67
43802;BMP280;29429;51.074;13.764;2023-08-06T02:07:55;99079.50;;;17.67
43802;BMP280;29429;51.074;13.764;2023-08-06T02:10:22;99079.50;;;17.67
43802;BMP280;29429;51.074;13.764;2023-08-06T02:12:49;99091.66;;;17.70
43802;BMP280;29429;51.074;13.764;2023-08-06T02:15:16;99085.44;;;17.69
43802;BMP280;29429;51.074;13.764;2023-08-06T02:17:43;99086.00;;;17.71
43802;BMP280;29429;51.074;13.764;2023-08-06T02:20:11;99090.84;;;17.74
43802;BMP280;29429;51.074;13.764;2023-08-06T02:22:38;99093.53;;;17.74
43802;BMP280;29429;51.074;13.764;2023-08-06T02:25:05;99092.75;;;17.74
43802;BMP280;29429;51.074;13.764;2023-08-06T02:27:32;99086.00;;;17.76
43802;BMP280;29429;51.074;13.764;2023-08-06T02:29:59;99083.84;;;17.78
43802;BMP280;29429;51.074;13.764;2023-08-06T02:32:27;99079.81;;;17.71
43802;BMP280;29429;51.074;13.764;2023-08-06T02:34:54;99080.56;;;17.61
43802;BMP280;29429;51.074;13.764;2023-08-06T02:37:21;99081.06;;;17.48
43802;BMP280;29429;51.074;13.764;2023-08-06T02:39:48;99079.44;;;17.42
43802;BMP280;29429;51.074;13.764;2023-08-06T02:42:15;99070.22;;;17.33
43802;BMP280;29429;51.074;13.764;2023-08-06T02:44:42;99070.22;;;17.23
43802;BMP280;29429;51.074;13.764;2023-08-06T02:47:09;99069.13;;;17.24
43802;BMP280;29429;51.074;13.764;2023-08-06T02:49:36;99059.44;;;17.33
43802;BMP280;29429;51.074;13.764;2023-08-06T02:52:04;99062.13;;;17.28
43802;BMP280;29429;51.074;13.764;2023-08-06T02:54:31;99064.00;;;17.17
43802;BMP280;29429;51.074;13.764;2023-08-06T02:56:59;99062.34;;;17.11
43802;BMP280;29429;51.074;13.764;2023-08-06T02:59:31;99053.94;;;17.02
43802;BMP280;29429;51.074;13.764;2023-08-06T03:02:18;99049.66;;;17.07
43802;BMP280;29429;51.074;13.764;2023-08-06T03:05:17;99045.94;;;17.18
43802;BMP280;29429;51.074;13.764;2023-08-06T03:07:46;99048.63;;;17.18
43802;BMP280;29429;51.074;13.764;2023-08-06T03:10:21;99040.25;;;17.14
43802;BMP280;29429;51.074;13.764;2023-08-06T03:12:50;99041.38;;;17.18
43802;BMP280;29429;51.074;13.764;2023-08-06T03:15:20;99031.66;;;17.17
43802;BMP280;29429;51.074;13.764;2023-08-06T03:17:48;99024.13;;;17.24
43802;BMP280;29429;51.074;13.764;2023-08-06T03:20:18;99024.94;;;17.35
43802;BMP280;29429;51.074;13.764;2023-08-06T03:22:46;99015.25;;;17.39
43802;BMP280;29429;51.074;13.764;2023-08-06T03:25:13;99020.13;;;17.47
43802;BMP280;29429;51.074;13.764;2023-08-06T03:27:46;99013.13;;;17.51
43802;BMP280;29429;51.074;13.764;2023-08-06T03:30:17;99015.03;;;17.55
43802;BMP280;29429;51.074;13.764;2023-08-06T03:32:44;99013.69;;;17.58
43802;BMP280;29429;51.074;13.764;2023-08-06T03:35:12;98997.50;;;17.58
43802;BMP280;29429;51.074;13.764;2023-08-06T03:37:38;99006.16;;;17.60
43802;BMP280;29429;51.074;13.764;2023-08-06T03:40:07;99002.38;;;17.61
43802;BMP280;29429;51.074;13.764;2023-08-06T03:42:34;98991.56;;;17.61
43802;BMP280;29429;51.074;13.764;2023-08-06T03:45:02;98996.72;;;17.57
43802;BMP280;29429;51.074;13.764;2023-08-06T03:47:30;98992.13;;;17.58
43802;BMP280;29429;51.074;13.764;2023-08-06T03:49:58;98989.41;;;17.58
43802;BMP280;29429;51.074;13.764;2023-08-06T03:52:25;98987.81;;;17.62
43802;BMP280;29429;51.074;13.764;2023-08-06T03:54:53;98989.44;;;17.63
43802;BMP280;29429;51.074;13.764;2023-08-06T03:57:21;98985.66;;;17.64
43802;BMP280;29429;51.074;13.764;2023-08-06T03:59:48;98983.50;;;17.66
43802;BMP280;29429;51.074;13.764;2023-08-06T04:02:23;98973.25;;;17.63
43802;BMP280;29429;51.074;13.764;2023-08-06T04:04:50;98967.88;;;17.63
43802;BMP280;29429;51.074;13.764;2023-08-06T04:07:20;98967.88;;;17.63
43802;BMP280;29429;51.074;13.764;2023-08-06T04:09:57;98961.38;;;17.64
43802;BMP280;29429;51.074;13.764;2023-08-06T04:12:26;98960.56;;;17.63
43802;BMP280;29429;51.074;13.764;2023-08-06T04:14:54;98954.91;;;17.65
43802;BMP280;29429;51.074;13.764;2023-08-06T04:17:21;98944.13;;;17.65
43802;BMP280;29429;51.074;13.764;2023-08-06T04:19:54;98948.44;;;17.66
43802;BMP280;29429;51.074;13.764;2023-08-06T04:22:22;98947.91;;;17.64
43802;BMP280;29429;51.074;13.764;2023-08-06T04:24:49;98949.78;;;17.63
43802;BMP280;29429;51.074;13.764;2023-08-06T04:27:18;98949.53;;;17.65
43802;BMP280;29429;51.074;13.764;2023-08-06T04:29:50;98936.28;;;17.63
43802;BMP280;29429;51.074;13.764;2023-08-06T04:32:17;98932.25;;;17.66
43802;BMP280;29429;51.074;13.764;2023-08-06T04:34:49;98933.34;;;17.70
43802;BMP280;29429;51.074;13.764;2023-08-06T04:37:17;98927.41;;;17.68
43802;BMP280;29429;51.074;13.764;2023-08-06T04:39:44;98922.81;;;17.69
43802;BMP280;29429;51.074;13.764;2023-08-06T04:42:11;98922.03;;;17.68
43802;BMP280;29429;51.074;13.764;2023-08-06T04:44:39;98925.78;;;17.67
43802;BMP280;29429;51.074;13.764;2023-08-06T04:47:06;98921.22;;;17.68
43802;BMP280;29429;51.074;13.764;2023-08-06T04:49:33;98924.44;;;17.70
43802;BMP280;29429;51.074;13.764;2023-08-06T04:52:00;98917.97;;;17.71
43802;BMP280;29429;51.074;13.764;2023-08-06T04:54:27;98917.69;;;17.72
43802;BMP280;29429;51.074;13.764;2023-08-06T04:56:55;98903.13;;;17.73
43802;BMP280;29429;51.074;13.764;2023-08-06T04:59:22;98917.97;;;17.76
43802;BMP280;29429;51.074;13.764;2023-08-06T05:01:50;98906.63;;;17.79
43802;BMP280;29429;51.074;13.764;2023-08-06T05:04:18;98906.63;;;17.79
43802;BMP280;29429;51.074;13.764;2023-08-06T05:06:45;98907.16;;;17.81
43802;BMP280;29429;51.074;13.764;2023-08-06T05:09:12;98906.34;;;17.80
43802;BMP280;29429;51.074;13.764;2023-08-06T05:11:39;98895.56;;;17.80
43802;BMP280;29429;51.074;13.764;2023-08-06T05:14:06;98909.31;;;17.63
43802;BMP280;29429;51.074;13.764;2023-08-06T05:16:34;98911.22;;;17.58
43802;BMP280;29429;51.074;13.764;2023-08-06T05:19:02;98904.75;;;17.64
43802;BMP280;29429;51.074;13.764;2023-08-06T05:21:30;98897.75;;;17.73
43802;BMP280;29429;51.074;13.764;2023-08-06T05:23:56;98896.63;;;17.79
43802;BMP280;29429;51.074;13.764;2023-08-06T05:26:25;98895.53;;;17.85
43802;BMP280;29429;51.074;13.764;2023-08-06T05:28:52;98893.94;;;17.89
43802;BMP280;29429;51.074;13.764;2023-08-06T05:31:19;98885.81;;;17.94
43802;BMP280;29429;51.074;13.764;2023-08-06T05:33:48;98885.28;;;17.97
43802;BMP280;29429;51.074;13.764;2023-08-06T05:36:17;98875.56;;;17.96
43802;BMP280;29429;51.074;13.764;2023-08-06T05:38:44;98877.97;;;17.98
43802;BMP280;29429;51.074;13.764;2023-08-06T05:41:15;98874.75;;;17.96
43802;BMP280;29429;51.074;13.764;2023-08-06T05:43:44;98868.81;;;17.99
43802;BMP280;29429;51.074;13.764;2023-08-06T05:46:11;98871.22;;;18.00
43802;BMP280;29429;51.074;13.764;2023-08-06T05:48:39;98875.53;;;18.06
43802;BMP280;29429;51.074;13.764;2023-08-06T05:51:06;98879.56;;;18.09
43802;BMP280;29429;51.074;13.764;2023-08-06T05:53:34;98876.84;;;18.14
43802;BMP280;29429;51.074;13.764;2023-08-06T05:56:01;98872.53;;;18.18
43802;BMP280;29429;51.074;13.764;2023-08-06T05:58:28;98867.91;;;18.23
43802;BMP280;29429;51.074;13.764;2023-08-06T06:00:57;98875.22;;;18.23
43802;BMP280;29429;51.074;13.764;2023-08-06T06:03:24;98882.00;;;18.10
43802;BMP280;29429;51.074;13.764;2023-08-06T06:05:51;98883.63;;;18.06
43802;BMP280;29429;51.074;13.764;2023-08-06T06:08:18;98884.19;;;17.98
43802;BMP280;29429;51.074;13.764;2023-08-06T06:10:46;98883.63;;;18.01
43802;BMP280;29429;51.074;13.764;2023-08-06T06:13:13;98873.38;;;18.03
43802;BMP280;29429;51.074;13.764;2023-08-06T06:15:41;98884.41;;;18.12
43802;BMP280;29429;51.074;13.764;2023-08-06T06:18:11;98873.38;;;18.03
43802;BMP280;29429;51.074;13.764;2023-08-06T06:20:38;98876.59;;;18.10
43802;BMP280;29429;51.074;13.764;2023-08-06T06:23:05;98874.94;;;18.19
43802;BMP280;29429;51.074;13.764;2023-08-06T06:25:33;98875.44;;;18.32
43802;BMP280;29429;51.074;13.764;2023-08-06T06:28:01;98874.84;;;18.45
43802;BMP280;29429;51.074;13.764;2023-08-06T06:30:29;98869.16;;;18.51
43802;BMP280;29429;51.074;13.764;2023-08-06T06:32:56;98872.94;;;18.55
43802;BMP280;29429;51.074;13.764;2023-08-06T06:35:23;98862.88;;;18.66
43802;BMP280;29429;51.074;13.764;2023-08-06T06:37:50;98866.03;;;18.78
43802;BMP280;29429;51.074;13.764;2023-08-06T06:40:17;98865.53;;;18.76
43802;BMP280;29429;51.074;13.764;2023-08-06T06:42:44;98867.19;;;18.67
43802;BMP280;29429;51.074;13.764;2023-08-06T06:45:13;98875.91;;;18.54
43802;BMP280;29429;51.074;13.764;2023-08-06T06:47:41;98868.63;;;18.54
43802;BMP280;29429;51.074;13.764;2023-08-06T06:50:09;98876.91;;;18.68
43802;BMP280;29429;51.074;13.764;2023-08-06T06:52:37;98873.63;;;18.76
43802;BMP280;29429;51.074;13.764;2023-08-06T06:55:05;98871.19;;;18.74
43802;BMP280;29429;51.074;13.764;2023-08-06T06:57:32;98878.25;;;18.70
43802;BMP280;29429;51.074;13.764;2023-08-06T06:59:59;98887.09;;;18.81
43802;BMP280;29429;51.074;13.764;2023-08-06T07:02:26;98880.06;;;18.80
43802;BMP280;29429;51.074;13.764;2023-08-06T07:04:53;98884.09;;;18.82
43802;BMP280;29429;51.074;13.764;2023-08-06T07:07:21;98883.56;;;18.85
43802;BMP280;29429;51.074;13.764;2023-08-06T07:09:48;98888.44;;;18.83
43802;BMP280;29429;51.074;13.764;2023-08-06T07:12:15;98884.66;;;18.84
43802;BMP280;29429;51.074;13.764;2023-08-06T07:14:42;98884.06;;;18.93
43802;BMP280;29429;51.074;13.764;2023-08-06T07:17:09;98889.06;;;19.09
43802;BMP280;29429;51.074;13.764;2023-08-06T07:19:36;98884.16;;;19.16
43802;BMP280;29429;51.074;13.764;2023-08-06T07:22:04;98885.13;;;19.30
43802;BMP280;29429;51.074;13.764;2023-08-06T07:24:31;98881.53;;;19.45
43802;BMP280;29429;51.074;13.764;2023-08-06T07:26:58;98881.75;;;19.49
43802;BMP280;29429;51.074;13.764;2023-08-06T07:29:25;98866.28;;;19.54
43802;BMP280;29429;51.074;13.764;2023-08-06T07:31:52;98878.69;;;19.60
43802;BMP280;29429;51.074;13.764;2023-08-06T07:34:19;98867.88;;;19.60
43802;BMP280;29429;51.074;13.764;2023-08-06T07:36:47;98864.53;;;19.68
43802;BMP280;29429;51.074;13.764;2023-08-06T07:39:14;98869.84;;;19.78
43802;BMP280;29429;51.074;13.764;2023-08-06T07:41:43;98866.69;;;19.71
43802;BMP280;29429;51.074;13.764;2023-08-06T07:44:10;98870.16;;;19.77
43802;BMP280;29429;51.074;13.764;2023-08-06T07:46:37;98864.09;;;19.85
43802;BMP280;29429;51.074;13.764;2023-08-06T07:49:05;98862.84;;;19.77
43802;BMP280;29429;51.074;13.764;2023-08-06T07:51:32;98864.16;;;19.80
43802;BMP280;29429;51.074;13.764;2023-08-06T07:53:59;98860.06;;;19.82
43802;BMP280;29429;51.074;13.764;2023-08-06T07:56:26;98865.75;;;19.81
43802;BMP280;29429;51.074;13.764;2023-08-06T07:58:53;98859.06;;;19.73
43802;BMP280;29429;51.074;13.764;2023-08-06T08:01:20;98862.81;;;19.54
43802;BMP280;29429;51.074;13.764;2023-08-06T08:03:47;98865.31;;;19.45
43802;BMP280;29429;51.074;13.764;2023-08-06T08:06:14;98857.00;;;19.31
43802;BMP280;29429;51.074;13.764;2023-08-06T08:08:41;98857.69;;;19.13
43802;BMP280;29429;51.074;13.764;2023-08-06T08:11:08;98856.06;;;19.12
43802;BMP280;29429;51.074;13.764;2023-08-06T08:13:35;98848.25;;;19.11
43802;BMP280;29429;51.074;13.764;2023-08-06T08:16:02;98853.41;;;19.07
43802;BMP280;29429;51.074;13.764;2023-08-06T08:18:29;98845.34;;;19.02
43802;BMP280;29429;51.074;13.764;2023-08-06T08:20:58;98843.69;;;19.06
43802;BMP280;29429;51.074;13.764;2023-08-06T08:23:25;98844.69;;;19.15
43802;BMP280;29429;51.074;13.764;2023-08-06T08:25:52;98838.38;;;19.25
43802;BMP280;29429;51.074;13.764;2023-08-06T08:28:19;98827.50;;;19.35
43802;BMP280;29429;51.074;13.764;2023-08-06T08:30:46;98825.31;;;19.37
43802;BMP280;29429;51.074;13.764;2023-08-06T08:33:13;98825.38;;;19.32
43802;BMP280;29429;51.074;13.764;2023-08-06T08:35:40;98824.03;;;19.29
43802;BMP280;29429;51.074;13.764;2023-08-06T08:38:07;98815.38;;;19.27
43802;BMP280;29429;51.074;13.764;2023-08-06T08:40:45;98816.94;;;19.38
43802;BMP280;29429;51.074;13.764;2023-08-06T08:43:14;98814.44;;;19.47
43802;BMP280;29429;51.074;13.764;2023-08-06T08:45:43;98812.72;;;19.56
43802;BMP280;29429;51.074;13.764;2023-08-06T08:48:13;98815.03;;;19.68
43802;BMP280;29429;51.074;13.764;2023-08-06T08:50:46;98805.53;;;19.70
43802;BMP280;29429;51.074;13.764;2023-08-06T08:53:15;98808.34;;;19.84
43802;BMP280;29429;51.074;13.764;2023-08-06T08:55:49;98804.63;;;19.80
43802;BMP280;29429;51.074;13.764;2023-08-06T08:58:16;98804.78;;;19.88
43802;BMP280;29429;51.074;13.764;2023-08-06T09:00:46;98798.78;;;19.91
43802;BMP280;29429;51.074;13.764;2023-08-06T09:03:17;98802.44;;;19.82
43802;BMP280;29429;51.074;13.764;2023-08-06T09:05:45;98795.94;;;19.83
43802;BMP280;29429;51.074;13.764;2023-08-06T09:08:18;98801.84;;;19.85
43802;BMP280;29429;51.074;13.764;2023-08-06T09:10:48;98793.88;;;19.75
43802;BMP280;29429;51.074;13.764;2023-08-06T09:13:16;98791.25;;;19.65
43802;BMP280;29429;51.074;13.764;2023-08-06T09:15:43;98788.91;;;19.58
43802;BMP280;29429;51.074;13.764;2023-08-06T09:18:12;98794.81;;;19.60
43802;BMP280;29429;51.074;13.764;2023-08-06T09:20:39;98792.69;;;19.57
43802;BMP280;29429;51.074;13.764;2023-08-06T09:23:10;98791.78;;;19.67
43802;BMP280;29429;51.074;13.764;2023-08-06T09:25:40;98801.91;;;19.80
43802;BMP280;29429;51.074;13.764;2023-08-06T09:28:08;98798.97;;;19.76
43802;BMP280;29429;51.074;13.764;2023-08-06T09:30:37;98790.41;;;19.69
43802;BMP280;29429;51.074;13.764;2023-08-06T09:33:09;98784.19;;;19.69
43802;BMP280;29429;51.074;13.764;2023-08-06T09:35:41;98789.59;;;19.69
43802;BMP280;29429;51.074;13.764;2023-08-06T09:38:10;98784.44;;;19.67
43802;BMP280;29429;51.074;13.764;2023-08-06T09:40:39;98785.78;;;19.70
43802;BMP280;29429;51.074;13.764;2023-08-06T09:43:06;98790.63;;;19.73
43802;BMP280;29429;51.074;13.764;2023-08-06T09:45:38;98790.53;;;19.83
43802;BMP280;29429;51.074;13.764;2023-08-06T09:48:09;98787.97;;;19.91
43802;BMP280;29429;51.074;13.764;2023-08-06T09:50:38;98778.75;;;19.92
43802;BMP280;29429;51.074;13.764;2023-08-06T09:53:08;98790.16;;;19.89
43802;BMP280;29429;51.074;13.764;2023-08-06T09:55:36;98784.97;;;19.93
43802;BMP280;29429;51.074;13.764;2023-08-06T09:58:03;98778.75;;;19.92
43802;BMP280;29429;51.074;13.764;2023-08-06T10:00:31;98776.06;;;19.92
43802;BMP280;29429;51.074;13.764;2023-08-06T10:03:04;98772.59;;;19.87
43802;BMP280;29429;51.074;13.764;2023-08-06T10:05:33;98772.66;;;19.82
43802;BMP280;29429;51.074;13.764;2023-08-06T10:08:03;98760.16;;;19.86
43802;BMP280;29429;51.074;13.764;2023-08-06T10:10:31;98756.88;;;19.89
43802;BMP280;29429;51.074;13.764;2023-08-06T10:13:00;98759.75;;;19.97
43802;BMP280;29429;51.074;13.764;2023-08-06T10:15:31;98757.56;;;20.18
43802;BMP280;29429;51.074;13.764;2023-08-06T10:18:00;98758.00;;;20.30
43802;BMP280;29429;51.074;13.764;2023-08-06T10:20:34;98747.09;;;20.35
43802;BMP280;29429;51.074;13.764;2023-08-06T10:23:06;98749.72;;;20.40
43802;BMP280;29429;51.074;13.764;2023-08-06T10:25:40;98750.22;;;20.61
43802;BMP280;29429;51.074;13.764;2023-08-06T10:28:09;98750.94;;;20.67
43802;BMP280;29429;51.074;13.764;2023-08-06T10:30:45;98744.72;;;20.66
43802;BMP280;29429;51.074;13.764;2023-08-06T10:33:14;98746.34;;;20.67
43802;BMP280;29429;51.074;13.764;2023-08-06T10:35:48;98739.69;;;20.59
43802;BMP280;29429;51.074;13.764;2023-08-06T10:38:25;98732.22;;;20.51
43802;BMP280;29429;51.074;13.764;2023-08-06T10:41:04;98718.81;;;20.41
43802;BMP280;29429;51.074;13.764;2023-08-06T10:43:36;98720.72;;;20.41
43802;BMP280;29429;51.074;13.764;2023-08-06T10:46:30;98713.47;;;20.36
43802;BMP280;29429;51.074;13.764;2023-08-06T10:48:57;98724.31;;;20.36
43802;BMP280;29429;51.074;13.764;2023-08-06T10:51:25;98720.78;;;20.54
43802;BMP280;29429;51.074;13.764;2023-08-06T10:53:53;98713.06;;;20.80
43802;BMP280;29429;51.074;13.764;2023-08-06T10:56:25;98701.50;;;21.07
43802;BMP280;29429;51.074;13.764;2023-08-06T10:58:56;98697.91;;;21.25
43802;BMP280;29429;51.074;13.764;2023-08-06T11:01:24;98689.78;;;21.39
43802;BMP280;29429;51.074;13.764;2023-08-06T11:04:02;98690.50;;;21.44
43802;BMP280;29429;51.074;13.764;2023-08-06T11:06:30;98689.47;;;21.40
43802;BMP280;29429;51.074;13.764;2023-08-06T11:08:57;98688.06;;;21.43
43802;BMP280;29429;51.074;13.764;2023-08-06T11:11:27;98680.94;;;21.33
43802;BMP280;29429;51.074;13.764;2023-08-06T11:13:56;98676.41;;;21.29
43802;BMP280;29429;51.074;13.764;2023-08-06T11:16:23;98684.03;;;21.27
43802;BMP280;29429;51.074;13.764;2023-08-06T11:18:54;98680.81;;;21.11
43802;BMP280;29429;51.074;13.764;2023-08-06T11:21:25;98677.28;;;21.10
43802;BMP280;29429;51.074;13.764;2023-08-06T11:23:53;98678.09;;;21.11
43802;BMP280;29429;51.074;13.764;2023-08-06T11:26:21;98679.22;;;21.10
43802;BMP280;29429;51.074;13.764;2023-08-06T11:28:51;98666.56;;;21.19
43802;BMP280;29429;51.074;13.764;2023-08-06T11:31:24;98669.47;;;21.36
43802;BMP280;29429;51.074;13.764;2023-08-06T11:33:55;98673.88;;;21.32
43802;BMP280;29429;51.074;13.764;2023-08-06T11:39:00;98671.00;;;21.29
43802;BMP280;29429;51.074;13.764;2023-08-06T11:41:32;98672.38;;;21.26
43802;BMP280;29429;51.074;13.764;2023-08-06T11:44:01;98671.16;;;21.18
43802;BMP280;29429;51.074;13.764;2023-08-06T11:46:59;98665.75;;;21.32
43802;BMP280;29429;51.074;13.764;2023-08-06T11:49:46;98670.56;;;21.35
43802;BMP280;29429;51.074;13.764;2023-08-06T11:52:21;98672.31;;;21.31
43802;BMP280;29429;51.074;13.764;2023-08-06T11:55:08;98656.09;;;21.26
43802;BMP280;29429;51.074;13.764;2023-08-06T11:57:48;98663.47;;;21.39
43802;BMP280;29429;51.074;13.764;2023-08-06T12:00:18;98673.56;;;21.47
43802;BMP280;29429;51.074;13.764;2023-08-06T12:03:01;98668.75;;;21.58
43802;BMP280;29429;51.074;13.764;2023-08-06T12:05:33;98667.63;;;21.72
43802;BMP280;29429;51.074;13.764;2023-08-06T12:08:05;98663.91;;;21.82
43802;BMP280;29429;51.074;13.764;2023-08-06T12:10:35;98659.75;;;21.84
43802;BMP280;29429;51.074;13.764;2023-08-06T12:13:17;98655.88;;;21.63
43802;BMP280;29429;51.074;13.764;2023-08-06T12:15:45;98659.81;;;21.71
43802;BMP280;29429;51.074;13.764;2023-08-06T12:18:14;98659.50;;;21.86
43802;BMP280;29429;51.074;13.764;2023-08-06T12:21:06;98643.81;;;21.69
43802;BMP280;29429;51.074;13.764;2023-08-06T12:23:44;98644.63;;;21.70
43802;BMP280;29429;51.074;13.764;2023-08-06T12:26:14;98654.06;;;21.72
43802;BMP280;29429;51.074;13.764;2023-08-06T12:28:42;98656.09;;;21.53
43802;BMP280;29429;51.074;13.764;2023-08-06T12:31:12;98653.97;;;21.50
43802;BMP280;29429;51.074;13.764;2023-08-06T12:33:39;98656.91;;;21.54
43802;BMP280;29429;51.074;13.764;2023-08-06T12:36:07;98660.91;;;21.56
43802;BMP280;29429;51.074;13.764;2023-08-06T12:38:38;98657.22;;;21.52
43802;BMP280;29429;51.074;13.764;2023-08-06T12:41:13;98651.16;;;21.55
43802;BMP280;29429;51.074;13.764;2023-08-06T12:43:42;98642.84;;;21.52
43802;BMP280;29429;51.074;13.764;2023-08-06T12:46:12;98641.03;;;21.47
43802;BMP280;29429;51.074;13.764;2023-08-06T12:48:42;98642.13;;;21.60
43802;BMP280;29429;51.074;13.764;2023-08-06T12:51:09;98639.09;;;21.75
43802;BMP280;29429;51.074;13.764;2023-08-06T12:53:38;98631.22;;;21.87
43802;BMP280;29429;51.074;13.764;2023-08-06T12:56:17;98624.47;;;21.98
43802;BMP280;29429;51.074;13.764;2023-08-06T12:58:48;98630.94;;;22.11
43802;BMP280;29429;51.074;13.764;2023-08-06T13:02:04;98624.78;;;22.19
43802;BMP280;29429;51.074;13.764;2023-08-06T13:04:39;98628.69;;;22.26
43802;BMP280;29429;51.074;13.764;2023-08-06T13:07:23;98624.56;;;22.29
43802;BMP280;29429;51.074;13.764;2023-08-06T13:09:54;98623.69;;;22.20
43802;BMP280;29429;51.074;13.764;2023-08-06T13:12:21;98623.94;;;22.10
43802;BMP280;29429;51.074;13.764;2023-08-06T13:14:49;98621.56;;;21.95
43802;BMP280;29429;51.074;13.764;2023-08-06T13:17:20;98636.72;;;22.09
43802;BMP280;29429;51.074;13.764;2023-08-06T13:19:47;98618.53;;;21.96
43802;BMP280;29429;51.074;13.764;2023-08-06T13:22:23;98615.47;;;21.89
43802;BMP280;29429;51.074;13.764;2023-08-06T13:24:50;98628.91;;;21.94
43802;BMP280;29429;51.074;13.764;2023-08-06T13:27:23;98613.59;;;21.84
43802;BMP280;29429;51.074;13.764;2023-08-06T13:30:11;98610.06;;;21.98
43802;BMP280;29429;51.074;13.764;2023-08-06T13:33:20;98616.75;;;22.14
43802;BMP280;29429;51.074;13.764;2023-08-06T13:35:53;98617.88;;;22.35
43802;BMP280;29429;51.074;13.764;2023-08-06T13:38:35;98615.47;;;22.33
43802;BMP280;29429;51.074;13.764;2023-08-06T13:41:38;98626.56;;;22.45
43802;BMP280;29429;51.074;13.764;2023-08-06T13:44:28;98618.38;;;22.37
43802;BMP280;29429;51.074;13.764;2023-08-06T13:46:55;98614.47;;;22.29
43802;BMP280;29429;51.074;13.764;2023-08-06T13:49:26;98614.19;;;22.31
43802;BMP280;29429;51.074;13.764;2023-08-06T13:52:07;98613.38;;;22.30
43802;BMP280;29429;51.074;13.764;2023-08-06T13:54:47;98620.22;;;22.28
43802;BMP280;29429;51.074;13.764;2023-08-06T13:57:15;98605.00;;;22.18
43802;BMP280;29429;51.074;13.764;2023-08-06T13:59:54;98608.69;;;22.22
43802;BMP280;29429;51.074;13.764;2023-08-06T14:02:23;98604.88;;;22.23
43802;BMP280;29429;51.074;13.764;2023-08-06T14:04:54;98606.78;;;22.23
43802;BMP280;29429;51.074;13.764;2023-08-06T14:07:22;98610.22;;;22.15
43802;BMP280;29429;51.074;13.764;2023-08-06T14:09:49;98607.72;;;22.18
43802;BMP280;29429;51.074;13.764;2023-08-06T14:12:17;98603.44;;;22.04
43802;BMP280;29429;51.074;13.764;2023-08-06T14:14:44;98599.53;;;21.96
43802;BMP280;29429;51.074;13.764;2023-08-06T14:17:11;98604.28;;;21.91
43802;BMP280;29429;51.074;13.764;2023-08-06T14:19:39;98593.50;;;21.85